createdAt,value
2023-08-17T00:02:17.716Z,101403.69
2023-08-17T00:04:44.389Z,101396.38
2023-08-17T00:07:10.970Z,101390.09
2023-08-17T00:09:37.630Z,101391.91
2023-08-17T00:12:04.843Z,101388.31
2023-08-17T00:14:32.945Z,101378.25
2023-08-17T00:16:59.629Z,101384.63
2023-08-17T00:19:26.603Z,101379.25
2023-08-17T00:21:53.801Z,101374.66
2023-08-17T00:24:20.427Z,101375.59
2023-08-17T00:26:47.078Z,101379.34
2023-08-17T00:29:16.363Z,101362.91
2023-08-17T00:31:43.998Z,101368.38
2023-08-17T00:34:10.578Z,101368.38
2023-08-17T00:36:38.239Z,101364.69
2023-08-17T00:39:05.098Z,101371.03
2023-08-17T00:41:31.991Z,101363.75
2023-08-17T00:44:02.772Z,101362.91
2023-08-17T00:46:31.296Z,101374.72
2023-08-17T00:48:58.086Z,101373.78
2023-08-17T00:51:25.994Z,101369.19
2023-08-17T00:53:59.481Z,101385.63
2023-08-17T00:56:27.949Z,101376.50
2023-08-17T00:58:55.420Z,101375.53
2023-08-17T01:01:23.181Z,101379.06
2023-08-17T01:03:49.916Z,101375.53
2023-08-17T01:06:19.718Z,101377.47
2023-08-17T01:08:47.092Z,101370.13
2023-08-17T01:11:25.998Z,101377.47
2023-08-17T01:14:19.654Z,101374.59
2023-08-17T01:16:53.499Z,101373.88
2023-08-17T01:19:27.173Z,101370.31
2023-08-17T01:21:59.215Z,101371.25
2023-08-17T01:24:25.868Z,101370.50
2023-08-17T01:26:53.811Z,101376.09
2023-08-17T01:29:20.669Z,101378.09
2023-08-17T01:32:17.153Z,101381.03
2023-08-17T01:34:58.144Z,101387.59
2023-08-17T01:37:29.467Z,101390.38
2023-08-17T01:39:58.887Z,101387.72
2023-08-17T01:42:26.854Z,101394.97
2023-08-17T01:44:55.433Z,101387.91
2023-08-17T01:47:23.700Z,101388.88
2023-08-17T01:49:50.688Z,101388.13
2023-08-17T01:52:23.501Z,101390.94
2023-08-17T01:54:50.074Z,101388.44
2023-08-17T01:57:16.685Z,101386.75
2023-08-17T01:59:43.568Z,101388.78
2023-08-17T02:02:12.558Z,101387.09
2023-08-17T02:04:40.059Z,101397.97
2023-08-17T02:07:07.926Z,101397.16
2023-08-17T02:09:34.609Z,101393.63
2023-08-17T02:12:01.465Z,101388.22
2023-08-17T02:14:28.109Z,101391.00
2023-08-17T02:16:54.777Z,101392.59
2023-08-17T02:19:22.550Z,101390.06
2023-08-17T02:21:51.742Z,101381.84
2023-08-17T02:24:19.287Z,101380.06
2023-08-17T02:26:46.003Z,101382.03
2023-08-17T02:29:14.746Z,101373.00
2023-08-17T02:31:41.461Z,101382.25
2023-08-17T02:34:08.933Z,101384.25
2023-08-17T02:36:40.012Z,101380.63
2023-08-17T02:39:06.627Z,101378.94
2023-08-17T02:41:34.304Z,101373.47
2023-08-17T02:44:02.184Z,101368.88
2023-08-17T02:46:28.933Z,101354.25
2023-08-17T02:48:55.581Z,101347.91
2023-08-17T02:51:22.469Z,101344.25
2023-08-17T02:53:49.155Z,101338.91
2023-08-17T02:56:16.803Z,101343.50
2023-08-17T02:58:43.465Z,101339.88
2023-08-17T03:01:10.841Z,101353.78
2023-08-17T03:03:37.961Z,101344.59
2023-08-17T03:06:04.873Z,101342.84
2023-08-17T03:08:31.478Z,101335.47
2023-08-17T03:10:58.060Z,101341.97
2023-08-17T03:13:24.677Z,101339.34
2023-08-17T03:15:52.343Z,101335.84
2023-08-17T03:18:18.975Z,101338.53
2023-08-17T03:20:47.258Z,101336.84
2023-08-17T03:23:14.051Z,101327.66
2023-08-17T03:25:43.020Z,101332.25
2023-08-17T03:28:09.715Z,101314.97
2023-08-17T03:30:37.772Z,101321.31
2023-08-17T03:33:04.845Z,101310.38
2023-08-17T03:35:33.507Z,101311.34
2023-08-17T03:38:00.088Z,101301.34
2023-08-17T03:40:28.226Z,101304.22
2023-08-17T03:42:54.806Z,101295.94
2023-08-17T03:45:21.557Z,101290.28
2023-08-17T03:47:50.595Z,101291.34
2023-08-17T03:50:17.340Z,101288.59
2023-08-17T03:52:43.906Z,101281.34
2023-08-17T03:55:11.788Z,101287.63
2023-08-17T03:57:39.596Z,101290.28
2023-08-17T04:00:07.776Z,101285.81
2023-08-17T04:02:40.249Z,101286.63
2023-08-17T04:05:11.783Z,101283.03
2023-08-17T04:07:38.829Z,101294.97
2023-08-17T04:10:09.062Z,101283.03
2023-08-17T04:12:35.664Z,101297.56
2023-08-17T04:15:02.439Z,101293.94
2023-08-17T04:17:29.672Z,101296.56
2023-08-17T04:19:56.927Z,101290.19
2023-08-17T04:22:23.572Z,101293.91
2023-08-17T04:24:50.273Z,101295.63
2023-08-17T04:27:17.082Z,101303.84
2023-08-17T04:29:46.743Z,101306.53
2023-08-17T04:32:17.422Z,101315.56
2023-08-17T04:34:46.380Z,101315.47
2023-08-17T04:37:15.958Z,101310.84
2023-08-17T04:39:44.411Z,101308.22
2023-08-17T04:42:14.757Z,101314.63
2023-08-17T04:44:43.614Z,101310.84
2023-08-17T04:47:10.842Z,101308.91
2023-08-17T04:49:39.628Z,101309.78
2023-08-17T04:52:06.636Z,101305.25
2023-08-17T04:54:34.278Z,101307.06
2023-08-17T04:57:00.961Z,101306.13
2023-08-17T04:59:28.011Z,101305.13
2023-08-17T05:01:55.718Z,101302.50
2023-08-17T05:04:22.947Z,101307.00
2023-08-17T05:06:51.686Z,101304.31
2023-08-17T05:09:19.455Z,101318.00
2023-08-17T05:11:46.699Z,101314.31
2023-08-17T05:14:13.464Z,101319.69
2023-08-17T05:16:41.082Z,101317.94
2023-08-17T05:19:07.744Z,101324.34
2023-08-17T05:21:36.444Z,101324.34
2023-08-17T05:24:03.781Z,101322.53
2023-08-17T05:26:30.475Z,101314.38
2023-08-17T05:28:57.137Z,101318.84
2023-08-17T05:31:25.469Z,101328.00
2023-08-17T05:33:53.721Z,101325.28
2023-08-17T05:36:22.829Z,101322.34
2023-08-17T05:38:49.723Z,101318.75
2023-08-17T05:41:18.513Z,101327.13
2023-08-17T05:43:45.209Z,101337.97
2023-08-17T05:46:12.663Z,101338.84
2023-08-17T05:48:39.362Z,101329.81
2023-08-17T05:51:06.134Z,101347.09
2023-08-17T05:53:33.869Z,101350.47
2023-08-17T05:56:00.534Z,101350.59
2023-08-17T05:58:27.356Z,101349.72
2023-08-17T06:00:56.420Z,101351.59
2023-08-17T06:03:23.137Z,101351.69
2023-08-17T06:05:53.839Z,101353.50
2023-08-17T06:08:20.460Z,101358.97
2023-08-17T06:10:47.509Z,101355.19
2023-08-17T06:13:14.340Z,101362.59
2023-08-17T06:15:42.249Z,101364.31
2023-08-17T06:18:09.113Z,101363.47
2023-08-17T06:20:36.978Z,101372.53
2023-08-17T06:23:04.026Z,101361.88
2023-08-17T06:25:31.005Z,101359.16
2023-08-17T06:27:58.261Z,101361.72
2023-08-17T06:30:24.874Z,101368.13
2023-08-17T06:32:53.121Z,101366.13
2023-08-17T06:35:20.151Z,101366.06
2023-08-17T06:37:46.727Z,101360.72
2023-08-17T06:40:13.366Z,101361.59
2023-08-17T06:42:39.994Z,101365.13
2023-08-17T06:45:08.462Z,101362.28
2023-08-17T06:47:35.182Z,101360.44
2023-08-17T06:50:01.939Z,101352.97
2023-08-17T06:52:28.586Z,101368.88
2023-08-17T06:54:55.294Z,101354.97
2023-08-17T06:57:23.037Z,101354.09
2023-08-17T07:06:09.805Z,101364.13
2023-08-17T07:08:36.983Z,101364.16
2023-08-17T07:11:05.044Z,101376.84
2023-08-17T07:13:31.826Z,101361.34
2023-08-17T07:15:58.613Z,101358.56
2023-08-17T07:18:25.236Z,101369.41
2023-08-17T07:20:52.117Z,101367.72
2023-08-17T07:23:18.803Z,101363.00
2023-08-17T07:25:45.495Z,101367.41
2023-08-17T07:28:12.229Z,101360.06
2023-08-17T07:30:38.838Z,101364.63
2023-08-17T07:33:05.922Z,101362.06
2023-08-17T07:35:32.661Z,101372.88
2023-08-17T07:38:08.237Z,101371.19
2023-08-17T07:40:35.945Z,101363.94
2023-08-17T07:43:02.867Z,101369.81
2023-08-17T07:45:30.839Z,101366.13
2023-08-17T07:47:57.492Z,101361.38
2023-08-17T07:50:24.310Z,101365.03
2023-08-17T07:52:51.276Z,101376.09
2023-08-17T07:55:18.606Z,101373.47
2023-08-17T07:57:45.220Z,101375.41
2023-08-17T08:00:12.543Z,101387.22
2023-08-17T08:02:39.298Z,101380.00
2023-08-17T08:05:07.056Z,101384.66
2023-08-17T08:07:33.632Z,101391.97
2023-08-17T08:10:00.643Z,101388.31
2023-08-17T08:12:27.282Z,101396.47
2023-08-17T08:14:54.915Z,101390.84
2023-08-17T08:17:21.613Z,101390.00
2023-08-17T08:19:48.212Z,101401.00
2023-08-17T08:22:14.938Z,101396.47
2023-08-17T08:24:43.992Z,101396.31
2023-08-17T08:27:11.912Z,101399.16
2023-08-17T08:29:38.768Z,101393.72
2023-08-17T08:32:05.547Z,101393.84
2023-08-17T08:34:32.290Z,101399.31
2023-08-17T08:36:58.961Z,101397.47
2023-08-17T08:39:29.153Z,101406.50
2023-08-17T08:41:56.237Z,101404.72
2023-08-17T08:44:23.167Z,101397.34
2023-08-17T08:46:50.392Z,101398.44
2023-08-17T08:49:21.273Z,101396.56
2023-08-17T08:51:51.458Z,101398.25
2023-08-17T08:54:25.477Z,101398.38
2023-08-17T08:56:59.111Z,101394.78
2023-08-17T08:59:28.121Z,101403.63
2023-08-17T09:01:58.103Z,101400.72
2023-08-17T09:04:26.733Z,101401.69
2023-08-17T09:06:54.826Z,101392.44
2023-08-17T09:09:22.518Z,101390.50
2023-08-17T09:11:49.120Z,101400.94
2023-08-17T09:14:15.775Z,101402.94
2023-08-17T09:16:42.426Z,101410.28
2023-08-17T09:19:09.354Z,101413.25
2023-08-17T09:21:36.128Z,101405.22
2023-08-17T09:24:02.911Z,101403.47
2023-08-17T09:26:33.807Z,101399.81
2023-08-17T09:29:03.013Z,101403.75
2023-08-17T09:31:33.401Z,101402.22
2023-08-17T09:34:06.422Z,101402.44
2023-08-17T09:36:36.557Z,101400.81
2023-08-17T09:39:04.364Z,101406.31
2023-08-17T09:41:30.980Z,101409.06
2023-08-17T09:43:58.712Z,101406.25
2023-08-17T09:46:27.554Z,101404.56
2023-08-17T09:48:54.626Z,101404.53
2023-08-17T09:51:21.602Z,101400.03
2023-08-17T09:56:28.127Z,101402.81
2023-08-17T09:58:54.907Z,101403.09
2023-08-17T10:01:22.964Z,101397.81
2023-08-17T10:03:51.362Z,101395.66
2023-08-17T10:06:26.524Z,101395.38
2023-08-17T10:08:58.385Z,101397.19
2023-08-17T10:11:31.945Z,101403.53
2023-08-17T10:14:12.279Z,101403.69
2023-08-17T10:16:45.498Z,101402.66
2023-08-17T10:19:34.328Z,101400.84
2023-08-17T10:22:19.976Z,101402.66
2023-08-17T10:24:48.262Z,101400.84
2023-08-17T10:27:16.306Z,101399.06
2023-08-17T10:29:48.032Z,101398.94
2023-08-17T10:32:17.348Z,101400.78
2023-08-17T10:34:45.573Z,101398.22
2023-08-17T10:37:14.216Z,101401.03
2023-08-17T10:39:47.600Z,101399.06
2023-08-17T10:42:20.903Z,101401.72
2023-08-17T10:44:50.842Z,101402.44
2023-08-17T10:50:06.528Z,101402.50
2023-08-17T10:52:36.644Z,101406.19
2023-08-17T10:55:06.446Z,101407.81
2023-08-17T10:57:38.012Z,101410.47
2023-08-17T11:00:32.852Z,101407.63
2023-08-17T11:03:01.502Z,101418.84
2023-08-17T11:05:57.167Z,101408.78
2023-08-17T11:08:43.067Z,101412.22
2023-08-17T11:11:14.602Z,101411.50
2023-08-17T11:13:46.060Z,101423.38
2023-08-17T11:16:18.830Z,101422.50
2023-08-17T11:18:47.564Z,101417.97
2023-08-17T11:23:47.087Z,101424.09
2023-08-17T11:26:17.718Z,101422.69
2023-08-17T11:28:45.697Z,101422.56
2023-08-17T11:31:15.122Z,101420.69
2023-08-17T11:33:43.134Z,101418.06
2023-08-17T11:36:11.749Z,101426.72
2023-08-17T11:38:43.334Z,101424.75
2023-08-17T11:43:43.618Z,101425.53
2023-08-17T11:46:11.211Z,101418.38
2023-08-17T11:48:39.077Z,101426.53
2023-08-17T11:51:06.492Z,101426.69
2023-08-17T11:53:37.833Z,101420.44
2023-08-17T11:56:09.537Z,101431.28
2023-08-17T11:58:47.754Z,101422.13
2023-08-17T12:01:17.980Z,101427.59
2023-08-17T12:03:46.762Z,101431.22
2023-08-17T12:06:15.019Z,101419.34
2023-08-17T12:08:47.715Z,101420.34
2023-08-17T12:11:16.605Z,101422.25
2023-08-17T12:13:43.784Z,101420.44
2023-08-17T12:16:16.394Z,101413.22
2023-08-17T12:18:51.856Z,101420.31
2023-08-17T12:21:22.172Z,101422.91
2023-08-17T12:23:49.428Z,101413.88
2023-08-17T12:26:20.681Z,101421.06
2023-08-17T12:28:50.601Z,101421.03
2023-08-17T12:31:23.430Z,101418.19
2023-08-17T12:33:51.376Z,101425.47
2023-08-17T12:36:19.786Z,101421.78
2023-08-17T12:38:49.370Z,101414.44
2023-08-17T12:41:16.703Z,101420.78
2023-08-17T12:43:43.418Z,101425.38
2023-08-17T12:46:10.165Z,101423.56
2023-08-17T12:48:36.961Z,101421.00
2023-08-17T12:51:06.402Z,101415.50
2023-08-17T12:53:33.298Z,101414.44
2023-08-17T12:55:59.974Z,101415.19
2023-08-17T12:58:26.629Z,101424.22
2023-08-17T13:00:55.546Z,101422.41
2023-08-17T13:03:22.376Z,101419.63
2023-08-17T13:05:49.095Z,101418.63
2023-08-17T13:08:17.254Z,101423.22
2023-08-17T13:10:43.931Z,101426.91
2023-08-17T13:13:11.130Z,101424.91
2023-08-17T13:15:37.859Z,101421.16
2023-08-17T13:18:05.914Z,101419.44
2023-08-17T13:20:32.631Z,101425.66
2023-08-17T13:22:59.213Z,101422.97
2023-08-17T13:25:26.809Z,101424.53
2023-08-17T13:27:53.481Z,101418.16
2023-08-17T13:30:20.115Z,101418.94
2023-08-17T13:32:47.155Z,101414.28
2023-08-17T13:35:14.670Z,101412.53
2023-08-17T13:37:44.987Z,101417.91
2023-08-17T13:40:12.254Z,101411.38
2023-08-17T13:42:38.905Z,101416.03
2023-08-17T13:45:06.058Z,101406.97
2023-08-17T13:47:32.810Z,101407.66
2023-08-17T13:49:59.787Z,101414.81
2023-08-17T13:52:26.806Z,101408.31
2023-08-17T13:54:53.735Z,101409.13
2023-08-17T13:57:21.473Z,101406.25
2023-08-17T13:59:48.773Z,101408.81
2023-08-17T14:02:15.869Z,101409.75
2023-08-17T14:04:42.609Z,101408.00
2023-08-17T14:07:09.336Z,101410.72
2023-08-17T14:09:37.204Z,101403.44
2023-08-17T14:12:05.488Z,101404.34
2023-08-17T14:14:34.112Z,101405.31
2023-08-17T14:17:03.717Z,101405.31
2023-08-17T14:19:30.820Z,101401.66
2023-08-17T14:21:57.488Z,101397.03
2023-08-17T14:24:24.202Z,101394.19
2023-08-17T14:26:51.466Z,101393.38
2023-08-17T14:29:19.246Z,101387.78
2023-08-17T14:31:46.122Z,101395.19
2023-08-17T14:34:12.748Z,101394.38
2023-08-17T14:36:39.331Z,101392.59
2023-08-17T14:39:06.065Z,101389.00
2023-08-17T14:41:33.430Z,101385.41
2023-08-17T14:44:02.936Z,101384.47
2023-08-17T14:46:34.241Z,101383.25
2023-08-17T14:49:00.807Z,101383.34
2023-08-17T14:51:31.983Z,101384.28
2023-08-17T14:53:58.940Z,101383.44
2023-08-17T14:56:25.545Z,101388.06
2023-08-17T14:58:52.217Z,101387.22
2023-08-17T15:01:19.334Z,101394.59
2023-08-17T15:03:48.067Z,101385.53
2023-08-17T15:06:31.914Z,101393.75
2023-08-17T15:09:00.834Z,101387.44
2023-08-17T15:11:30.123Z,101397.47
2023-08-17T15:13:56.715Z,101403.94
2023-08-17T15:16:28.564Z,101392.22
2023-08-17T15:18:56.449Z,101400.38
2023-08-17T15:21:23.550Z,101391.41
2023-08-17T15:23:50.515Z,101394.19
2023-08-17T15:26:17.191Z,101395.09
2023-08-17T15:28:44.115Z,101393.34
2023-08-17T15:31:14.285Z,101393.38
2023-08-17T15:33:41.581Z,101396.06
2023-08-17T15:36:08.410Z,101389.06
2023-08-17T15:38:36.658Z,101392.50
2023-08-17T15:41:04.520Z,101400.91
2023-08-17T15:43:31.150Z,101389.91
2023-08-17T15:45:59.441Z,101391.69
2023-08-17T15:48:26.338Z,101391.69
2023-08-17T15:50:53.301Z,101386.13
2023-08-17T15:53:20.048Z,101390.84
2023-08-17T15:55:46.706Z,101376.38
2023-08-17T15:58:13.385Z,101380.28
2023-08-17T16:00:41.400Z,101388.38
2023-08-17T16:03:12.642Z,101379.41
2023-08-17T16:05:40.336Z,101373.00
2023-08-17T16:08:08.213Z,101376.66
2023-08-17T16:10:36.722Z,101380.16
2023-08-17T16:13:04.904Z,101381.03
2023-08-17T16:15:32.766Z,101372.94
2023-08-17T16:18:01.724Z,101369.97
2023-08-17T16:20:31.377Z,101361.88
2023-08-17T16:22:59.564Z,101364.63
2023-08-17T16:25:30.291Z,101370.94
2023-08-17T16:27:57.653Z,101364.72
2023-08-17T16:30:24.690Z,101368.41
2023-08-17T16:32:52.541Z,101364.75
2023-08-17T16:35:20.430Z,101369.22
2023-08-17T16:37:48.335Z,101370.19
2023-08-17T16:40:27.683Z,101368.44
2023-08-17T16:43:00.216Z,101366.59
2023-08-17T16:45:28.040Z,101374.88
2023-08-17T16:47:54.868Z,101375.84
2023-08-17T16:50:21.771Z,101373.28
2023-08-17T16:52:48.366Z,101377.72
2023-08-17T16:55:15.061Z,101373.97
2023-08-17T16:57:42.748Z,101376.72
2023-08-17T17:00:17.134Z,101385.00
2023-08-17T17:02:43.855Z,101382.25
2023-08-17T17:05:18.166Z,101375.19
2023-08-17T17:07:45.132Z,101381.47
2023-08-17T17:10:13.046Z,101382.41
2023-08-17T17:12:43.087Z,101378.69
2023-08-17T17:15:11.069Z,101385.03
2023-08-17T17:17:37.698Z,101384.13
2023-08-17T17:20:06.082Z,101384.16
2023-08-17T17:22:32.925Z,101376.84
2023-08-17T17:24:59.877Z,101382.31
2023-08-17T17:27:27.784Z,101380.50
2023-08-17T17:29:54.570Z,101377.94
2023-08-17T17:32:21.252Z,101372.47
2023-08-17T17:34:47.861Z,101371.66
2023-08-17T17:37:14.467Z,101367.06
2023-08-17T17:39:41.108Z,101370.75
2023-08-17T17:42:07.743Z,101374.44
2023-08-17T17:44:34.378Z,101363.59
2023-08-17T17:47:03.083Z,101374.53
2023-08-17T17:49:29.848Z,101381.78
2023-08-17T17:51:56.556Z,101370.94
2023-08-17T17:54:23.210Z,101380.94
2023-08-17T17:56:50.034Z,101384.66
2023-08-17T17:59:46.014Z,101376.50
2023-08-17T18:02:13.157Z,101378.38
2023-08-17T18:04:40.900Z,101380.22
2023-08-17T18:07:07.641Z,101372.91
2023-08-17T18:09:37.753Z,101372.91
2023-08-17T18:12:04.872Z,101377.41
2023-08-17T18:14:33.705Z,101369.34
2023-08-17T18:17:00.801Z,101371.03
2023-08-17T18:19:28.033Z,101369.25
2023-08-17T18:21:54.730Z,101373.84
2023-08-17T18:24:21.623Z,101366.69
2023-08-17T18:26:48.463Z,101369.53
2023-08-17T18:29:16.793Z,101367.72
2023-08-17T18:31:44.431Z,101365.94
2023-08-17T18:34:11.032Z,101366.03
2023-08-17T18:36:37.734Z,101366.94
2023-08-17T18:39:04.621Z,101375.09
2023-08-17T18:41:31.291Z,101373.28
2023-08-17T18:43:57.872Z,101365.97
2023-08-17T18:46:24.641Z,101369.63
2023-08-17T18:48:51.610Z,101380.63
2023-08-17T18:51:18.266Z,101381.59
2023-08-17T18:53:45.431Z,101389.69
2023-08-17T18:56:12.173Z,101386.03
2023-08-17T18:58:38.858Z,101386.03
2023-08-17T19:01:05.926Z,101381.44
2023-08-17T19:03:32.940Z,101389.75
2023-08-17T19:05:59.843Z,101396.25
2023-08-17T19:08:26.472Z,101390.78
2023-08-17T19:10:56.022Z,101396.19
2023-08-17T19:13:25.018Z,101395.31
2023-08-17T19:15:51.624Z,101396.19
2023-08-17T19:18:19.462Z,101398.00
2023-08-17T19:20:47.224Z,101399.75
2023-08-17T19:23:13.844Z,101390.63
2023-08-17T19:25:40.643Z,101387.91
2023-08-17T19:28:10.741Z,101386.97
2023-08-17T19:30:38.322Z,101392.47
2023-08-17T19:33:05.314Z,101388.81
2023-08-17T19:35:32.385Z,101387.91
2023-08-17T19:37:59.129Z,101393.34
2023-08-17T19:40:25.758Z,101391.56
2023-08-17T19:42:52.458Z,101388.81
2023-08-17T19:45:20.747Z,101385.16
2023-08-17T19:47:47.966Z,101381.50
2023-08-17T19:50:15.375Z,101389.69
2023-08-17T19:52:42.053Z,101390.63
2023-08-17T19:55:09.932Z,101386.16
2023-08-17T19:57:36.558Z,101381.63
2023-08-17T20:00:05.121Z,101381.66
2023-08-17T20:02:40.898Z,101379.84
2023-08-17T20:05:09.685Z,101380.72
2023-08-17T20:07:37.821Z,101383.47
2023-08-17T20:10:05.565Z,101381.66
2023-08-17T20:12:33.486Z,101375.31
2023-08-17T20:15:00.175Z,101379.00
2023-08-17T20:17:27.311Z,101378.94
2023-08-17T20:19:54.266Z,101378.09
2023-08-17T20:22:20.898Z,101378.06
2023-08-17T20:24:47.472Z,101372.53
2023-08-17T20:27:14.448Z,101369.78
2023-08-17T20:29:42.188Z,101370.78
2023-08-17T20:32:11.005Z,101374.47
2023-08-17T20:34:38.009Z,101371.72
2023-08-17T20:37:04.876Z,101365.31
2023-08-17T20:39:32.641Z,101370.84
2023-08-17T20:42:07.752Z,101373.63
2023-08-17T20:44:34.655Z,101369.91
2023-08-17T20:47:01.247Z,101364.44
2023-08-17T20:49:30.436Z,101360.78
2023-08-17T20:51:59.671Z,101355.25
2023-08-17T20:54:26.542Z,101352.50
2023-08-17T20:56:54.458Z,101360.72
2023-08-17T20:59:22.069Z,101363.47
2023-08-17T21:01:49.743Z,101360.78
2023-08-17T21:04:16.362Z,101373.53
2023-08-17T21:06:44.058Z,101370.84
2023-08-17T21:09:10.916Z,101371.81
2023-08-17T21:11:38.269Z,101369.91
2023-08-17T21:14:06.804Z,101365.41
2023-08-17T21:16:37.072Z,101359.00
2023-08-17T21:19:31.231Z,101365.41
2023-08-17T21:21:58.147Z,101360.88
2023-08-17T21:24:25.094Z,101365.41
2023-08-17T21:26:51.878Z,101359.09
2023-08-17T21:29:18.572Z,101366.34
2023-08-17T21:31:47.612Z,101360.88
2023-08-17T21:34:16.724Z,101367.28
2023-08-17T21:37:11.130Z,101356.41
2023-08-17T21:39:38.611Z,101364.56
2023-08-17T21:42:06.682Z,101362.69
2023-08-17T21:44:33.274Z,101357.16
2023-08-17T21:47:04.221Z,101357.22
2023-08-17T21:49:30.841Z,101354.53
2023-08-17T21:51:57.538Z,101353.63
2023-08-17T21:54:24.171Z,101349.94
2023-08-17T21:56:50.778Z,101345.41
2023-08-17T21:59:17.408Z,101347.22
2023-08-17T22:01:46.027Z,101353.63
2023-08-17T22:04:12.663Z,101351.75
2023-08-17T22:06:39.283Z,101349.94
2023-08-17T22:09:05.906Z,101357.28
2023-08-17T22:11:32.565Z,101363.56
2023-08-17T22:13:59.508Z,101359.09
2023-08-17T22:16:26.262Z,101362.75
2023-08-17T22:18:53.155Z,101360.00
2023-08-17T22:21:19.799Z,101358.16
2023-08-17T22:23:46.520Z,101362.75
2023-08-17T22:26:13.179Z,101359.09
2023-08-17T22:28:39.779Z,101364.56
2023-08-17T22:31:09.039Z,101359.09
2023-08-17T22:33:36.134Z,101353.66
2023-08-17T22:36:05.496Z,101359.19
2023-08-17T22:38:32.099Z,101352.81
2023-08-17T22:41:00.716Z,101355.69
2023-08-17T22:43:27.376Z,101357.44
2023-08-17T22:45:54.378Z,101360.22
2023-08-17T22:48:21.227Z,101364.75
2023-08-17T22:50:48.448Z,101357.47
2023-08-17T22:53:15.316Z,101361.06
2023-08-17T22:55:42.137Z,101358.31
2023-08-17T22:58:08.743Z,101355.59
2023-08-17T23:00:35.337Z,101348.34
2023-08-17T23:03:01.952Z,101346.56
2023-08-17T23:05:29.516Z,101342.03
2023-08-17T23:07:56.089Z,101339.28
2023-08-17T23:10:22.773Z,101338.41
2023-08-17T23:12:54.302Z,101345.69
2023-08-17T23:15:21.223Z,101348.41
2023-08-17T23:17:47.937Z,101344.84
2023-08-17T23:20:14.632Z,101335.69
2023-08-17T23:22:41.264Z,101347.63
2023-08-17T23:25:08.192Z,101347.66
2023-08-17T23:27:34.793Z,101355.94
2023-08-17T23:30:01.413Z,101359.63
2023-08-17T23:32:28.848Z,101363.31
2023-08-17T23:35:01.360Z,101360.53
2023-08-17T23:37:28.596Z,101359.53
2023-08-17T23:39:55.428Z,101362.19
2023-08-17T23:42:22.151Z,101366.78
2023-08-17T23:44:48.989Z,101367.56
2023-08-17T23:47:15.602Z,101364.81
2023-08-17T23:49:42.228Z,101364.81
2023-08-17T23:52:08.834Z,101357.56
2023-08-17T23:54:35.411Z,101357.56
2023-08-17T23:57:02.221Z,101354.81
2023-08-17T23:59:29.023Z,101355.59
